createdAt,value
2023-04-15T00:01:02.869Z,9.17
2023-04-15T00:03:30.991Z,9.00
2023-04-15T00:05:58.600Z,8.74
2023-04-15T00:08:26.200Z,9.04
2023-04-15T00:10:53.641Z,8.83
2023-04-15T00:13:20.854Z,8.85
2023-04-15T00:15:48.237Z,8.81
2023-04-15T00:18:15.168Z,9.17
2023-04-15T00:20:42.385Z,8.79
2023-04-15T00:23:10.363Z,8.99
2023-04-15T00:25:37.575Z,8.31
2023-04-15T00:28:05.785Z,8.64
2023-04-15T00:30:32.903Z,9.11
2023-04-15T00:33:02.370Z,9.29
2023-04-15T00:35:32.602Z,9.16
2023-04-15T00:38:00.135Z,9.26
2023-04-15T00:40:27.964Z,9.32
2023-04-15T00:42:55.248Z,9.40
2023-04-15T00:45:22.486Z,9.43
2023-04-15T00:47:49.922Z,9.29
2023-04-15T00:50:16.971Z,9.39
2023-04-15T00:52:44.378Z,9.09
2023-04-15T00:55:11.617Z,9.25
2023-04-15T00:57:40.758Z,9.10
2023-04-15T01:00:09.623Z,9.18
2023-04-15T01:02:37.064Z,8.55
2023-04-15T01:05:05.259Z,9.05
2023-04-15T01:07:32.574Z,8.81
2023-04-15T01:09:59.885Z,8.80
2023-04-15T01:12:27.585Z,9.05
2023-04-15T01:14:55.591Z,9.03
2023-04-15T01:17:23.440Z,8.96
2023-04-15T01:19:51.582Z,9.01
2023-04-15T01:22:18.799Z,8.75
2023-04-15T01:25:02.428Z,8.55
2023-04-15T01:27:31.469Z,8.90
2023-04-15T01:29:58.676Z,8.62
2023-04-15T01:32:26.144Z,8.86
2023-04-15T01:35:11.882Z,8.80
2023-04-15T01:37:48.541Z,8.58
2023-04-15T01:40:17.762Z,8.29
2023-04-15T01:42:46.781Z,8.48
2023-04-15T01:45:17.615Z,8.20
2023-04-15T01:47:45.867Z,8.40
2023-04-15T01:50:14.174Z,8.30
2023-04-15T01:52:43.583Z,7.97
2023-04-15T01:55:12.595Z,7.84
2023-04-15T01:57:41.269Z,8.18
2023-04-15T02:00:09.923Z,8.13
2023-04-15T02:02:44.908Z,7.90
2023-04-15T02:05:13.479Z,8.06
2023-04-15T02:07:43.511Z,7.86
2023-04-15T02:10:13.631Z,7.87
2023-04-15T02:12:42.260Z,7.93
2023-04-15T02:15:10.936Z,7.81
2023-04-15T02:17:39.396Z,7.88
2023-04-15T02:20:10.846Z,7.69
2023-04-15T02:22:39.360Z,7.76
2023-04-15T02:25:09.337Z,7.74
2023-04-15T02:27:38.566Z,7.09
2023-04-15T02:30:07.761Z,7.35
2023-04-15T02:32:38.127Z,7.56
2023-04-15T02:35:08.877Z,7.41
2023-04-15T02:37:43.303Z,7.32
2023-04-15T02:40:13.225Z,7.42
2023-04-15T02:42:43.011Z,6.92
2023-04-15T02:45:14.344Z,7.10
2023-04-15T02:47:44.493Z,7.14
2023-04-15T02:50:13.580Z,7.34
2023-04-15T02:52:44.593Z,7.22
2023-04-15T02:55:13.379Z,7.23
2023-04-15T02:57:42.802Z,6.92
2023-04-15T03:00:13.059Z,5.87
2023-04-15T03:02:47.563Z,7.06
2023-04-15T03:05:16.277Z,6.62
2023-04-15T03:07:51.815Z,7.03
2023-04-15T03:10:21.854Z,5.66
2023-04-15T03:12:50.170Z,6.69
2023-04-15T03:15:21.288Z,6.31
2023-04-15T03:17:52.982Z,6.01
2023-04-15T03:20:21.234Z,5.75
2023-04-15T03:22:50.310Z,6.38
2023-04-15T03:25:20.591Z,6.29
2023-04-15T03:27:49.573Z,6.06
2023-04-15T03:30:18.725Z,5.57
2023-04-15T03:32:48.562Z,6.30
2023-04-15T03:35:18.327Z,6.26
2023-04-15T03:37:46.478Z,5.98
2023-04-15T03:40:15.087Z,6.11
2023-04-15T03:42:43.329Z,6.07
2023-04-15T03:45:12.348Z,6.13
2023-04-15T03:47:40.623Z,6.01
2023-04-15T03:50:09.530Z,6.15
2023-04-15T03:52:38.085Z,4.94
2023-04-15T03:55:06.728Z,6.04
2023-04-15T03:57:39.256Z,6.12
2023-04-15T04:00:10.655Z,5.57
2023-04-15T04:02:41.880Z,4.93
2023-04-15T04:05:10.813Z,6.16
2023-04-15T04:08:00.692Z,6.02
2023-04-15T04:10:29.636Z,5.67
2023-04-15T04:12:58.965Z,6.34
2023-04-15T04:15:31.675Z,6.11
2023-04-15T04:18:00.221Z,6.26
2023-04-15T04:20:28.528Z,6.52
2023-04-15T04:22:57.480Z,6.57
2023-04-15T04:25:26.115Z,5.71
2023-04-15T04:27:54.662Z,6.02
2023-04-15T04:30:23.080Z,6.38
2023-04-15T04:32:51.797Z,6.48
2023-04-15T04:35:21.510Z,6.84
2023-04-15T04:37:51.360Z,6.67
2023-04-15T04:40:19.690Z,6.83
2023-04-15T04:42:47.976Z,6.93
2023-04-15T04:45:16.435Z,6.65
2023-04-15T04:47:44.557Z,6.85
2023-04-15T04:50:12.774Z,7.14
2023-04-15T04:52:41.388Z,6.98
2023-04-15T04:55:09.811Z,7.28
2023-04-15T04:57:39.640Z,7.31
2023-04-15T05:00:09.234Z,7.12
2023-04-15T05:02:37.447Z,7.46
2023-04-15T05:05:06.781Z,7.10
2023-04-15T05:07:34.939Z,7.61
2023-04-15T05:10:03.743Z,7.56
2023-04-15T05:12:32.414Z,7.55
2023-04-15T05:15:00.646Z,7.69
2023-04-15T05:17:28.978Z,7.68
2023-04-15T05:19:57.167Z,8.06
2023-04-15T05:22:25.460Z,8.09
2023-04-15T05:24:53.629Z,8.01
2023-04-15T05:27:22.662Z,8.34
2023-04-15T05:29:51.039Z,8.42
2023-04-15T05:32:19.361Z,8.45
2023-04-15T05:34:47.748Z,8.46
2023-04-15T05:37:16.051Z,8.49
2023-04-15T05:39:44.609Z,8.81
2023-04-15T05:42:12.750Z,8.89
2023-04-15T05:44:41.171Z,8.95
2023-04-15T05:47:11.027Z,8.96
2023-04-15T05:49:39.291Z,9.08
2023-04-15T05:52:07.581Z,9.23
2023-04-15T05:54:36.619Z,9.13
2023-04-15T05:57:04.915Z,9.03
2023-04-15T05:59:33.041Z,9.39
2023-04-15T06:02:01.211Z,9.29
2023-04-15T06:04:29.555Z,9.32
2023-04-15T06:06:57.980Z,9.57
2023-04-15T06:09:26.496Z,9.59
2023-04-15T06:11:54.994Z,9.75
2023-04-15T06:14:23.342Z,9.66
2023-04-15T06:16:51.688Z,9.73
2023-04-15T06:19:20.567Z,9.94
2023-04-15T06:21:48.966Z,9.97
2023-04-15T06:24:17.282Z,10.09
2023-04-15T06:26:45.648Z,10.05
2023-04-15T06:29:14.231Z,9.72
2023-04-15T06:31:42.460Z,10.12
2023-04-15T06:34:11.364Z,10.06
2023-04-15T06:36:39.522Z,10.21
2023-04-15T06:39:07.710Z,10.53
2023-04-15T06:41:36.475Z,10.51
2023-04-15T06:44:05.159Z,10.52
2023-04-15T06:46:33.432Z,10.77
2023-04-15T06:49:04.011Z,10.79
2023-04-15T06:51:32.892Z,10.83
2023-04-15T06:54:01.068Z,10.86
2023-04-15T06:56:29.613Z,11.18
2023-04-15T06:58:57.979Z,10.99
2023-04-15T07:01:26.722Z,11.17
2023-04-15T07:03:55.079Z,11.33
2023-04-15T07:06:23.300Z,10.88
2023-04-15T07:08:54.279Z,11.43
2023-04-15T07:11:22.483Z,11.09
2023-04-15T07:13:51.011Z,11.68
2023-04-15T07:16:19.321Z,11.64
2023-04-15T07:18:47.599Z,11.97
2023-04-15T07:21:15.909Z,11.89
2023-04-15T07:23:44.120Z,12.18
2023-04-15T07:26:12.458Z,12.36
2023-04-15T07:28:40.726Z,12.45
2023-04-15T07:31:09.116Z,12.51
2023-04-15T07:33:37.186Z,12.56
2023-04-15T07:36:05.561Z,12.50
2023-04-15T07:38:33.711Z,12.73
2023-04-15T07:41:02.635Z,12.89
2023-04-15T07:43:30.820Z,12.94
2023-04-15T07:45:59.242Z,13.05
2023-04-15T07:48:27.431Z,12.95
2023-04-15T07:50:55.520Z,13.10
2023-04-15T07:53:23.672Z,13.00
2023-04-15T07:55:54.600Z,13.11
2023-04-15T07:58:23.146Z,12.97
2023-04-15T08:00:51.916Z,13.27
2023-04-15T08:03:20.157Z,13.45
2023-04-15T08:05:48.692Z,13.20
2023-04-15T08:08:16.870Z,13.19
2023-04-15T08:10:45.083Z,13.73
2023-04-15T08:13:13.368Z,13.75
2023-04-15T08:15:41.594Z,13.70
2023-04-15T08:18:09.907Z,14.00
2023-04-15T08:20:38.567Z,13.62
2023-04-15T08:23:07.041Z,13.99
2023-04-15T08:25:35.081Z,14.04
2023-04-15T08:28:07.188Z,14.44
2023-04-15T08:30:35.722Z,14.68
2023-04-15T08:33:03.935Z,15.19
2023-04-15T08:35:32.840Z,15.58
2023-04-15T08:38:01.170Z,15.89
2023-04-15T08:40:41.147Z,16.08
2023-04-15T08:43:13.273Z,16.49
2023-04-15T08:45:42.631Z,16.74
2023-04-15T08:48:16.975Z,16.81
2023-04-15T08:50:46.469Z,16.80
2023-04-15T08:53:15.718Z,16.92
2023-04-15T08:55:45.954Z,17.14
2023-04-15T08:58:14.668Z,16.85
2023-04-15T09:00:43.132Z,17.51
2023-04-15T09:03:11.663Z,17.74
2023-04-15T09:05:39.925Z,17.59
2023-04-15T09:08:08.396Z,17.53
2023-04-15T09:10:36.928Z,17.82
2023-04-15T09:13:05.273Z,17.16
2023-04-15T09:15:33.858Z,17.11
2023-04-15T09:18:04.690Z,17.30
2023-04-15T09:20:42.142Z,17.37
2023-04-15T09:23:15.157Z,17.38
2023-04-15T09:25:43.619Z,17.30
2023-04-15T09:28:12.082Z,17.40
2023-04-15T09:30:46.647Z,17.37
2023-04-15T09:33:15.413Z,16.97
2023-04-15T09:35:58.124Z,17.30
2023-04-15T09:38:26.785Z,17.56
2023-04-15T09:40:56.218Z,17.70
2023-04-15T09:43:39.437Z,17.32
2023-04-15T09:46:07.988Z,17.52
2023-04-15T09:48:36.651Z,17.15
2023-04-15T09:51:04.764Z,17.21
2023-04-15T09:53:36.638Z,17.44
2023-04-15T09:56:07.910Z,17.64
2023-04-15T09:58:38.860Z,17.75
2023-04-15T10:01:09.432Z,17.91
2023-04-15T10:03:42.375Z,18.53
2023-04-15T10:06:10.926Z,18.89
2023-04-15T10:08:39.466Z,18.61
2023-04-15T10:11:08.187Z,18.74
2023-04-15T10:13:38.371Z,18.79
2023-04-15T10:16:15.402Z,18.96
2023-04-15T10:18:45.975Z,19.49
2023-04-15T10:21:18.603Z,19.97
2023-04-15T10:23:48.683Z,20.26
2023-04-15T10:26:17.903Z,20.17
2023-04-15T10:28:47.343Z,20.55
2023-04-15T10:31:15.860Z,20.05
2023-04-15T10:33:44.974Z,19.78
2023-04-15T10:36:13.881Z,19.97
2023-04-15T10:38:45.557Z,20.26
2023-04-15T10:41:27.093Z,20.36
2023-04-15T10:44:03.774Z,20.43
2023-04-15T10:46:38.710Z,20.82
2023-04-15T10:49:17.874Z,20.88
2023-04-15T10:51:51.554Z,20.83
2023-04-15T10:54:26.289Z,21.07
2023-04-15T10:57:01.431Z,20.94
2023-04-15T10:59:30.862Z,20.70
2023-04-15T11:02:04.592Z,20.66
2023-04-15T11:04:58.348Z,20.73
2023-04-15T11:07:48.716Z,20.87
2023-04-15T11:10:26.297Z,20.95
2023-04-15T11:12:59.026Z,20.93
2023-04-15T11:15:34.160Z,21.09
2023-04-15T11:18:25.849Z,21.12
2023-04-15T11:20:57.685Z,21.06
2023-04-15T11:23:33.421Z,21.15
2023-04-15T11:26:05.704Z,21.13
2023-04-15T11:28:34.086Z,21.16
2023-04-15T11:31:28.781Z,21.01
2023-04-15T11:34:02.279Z,20.99
2023-04-15T11:36:34.649Z,20.92
2023-04-15T11:39:02.699Z,21.21
2023-04-15T11:41:30.980Z,21.39
2023-04-15T11:43:59.317Z,21.42
2023-04-15T11:46:33.754Z,21.48
2023-04-15T11:49:01.998Z,21.67
2023-04-15T11:51:33.677Z,21.57
2023-04-15T11:54:01.323Z,21.71
2023-04-15T11:56:28.890Z,21.70
2023-04-15T11:59:02.293Z,21.63
2023-04-15T12:01:39.384Z,21.59
2023-04-15T12:04:14.953Z,21.52
2023-04-15T12:06:42.178Z,21.47
2023-04-15T12:09:13.975Z,21.31
2023-04-15T12:11:48.658Z,21.27
2023-04-15T12:14:15.666Z,21.21
2023-04-15T12:16:49.358Z,21.26
2023-04-15T12:19:24.255Z,21.36
2023-04-15T12:21:52.474Z,21.48
2023-04-15T12:24:23.316Z,21.62
2023-04-15T12:26:57.344Z,21.66
2023-04-15T12:29:28.989Z,21.69
2023-04-15T12:32:05.314Z,21.25
2023-04-15T12:34:35.815Z,22.00
2023-04-15T12:37:05.925Z,22.08
2023-04-15T12:39:36.464Z,21.87
2023-04-15T12:42:05.348Z,22.04
2023-04-15T12:44:33.341Z,22.07
2023-04-15T12:47:00.649Z,22.13
2023-04-15T12:49:29.229Z,22.19
2023-04-15T12:52:00.152Z,22.25
2023-04-15T12:54:28.347Z,22.27
2023-04-15T12:56:55.816Z,22.29
2023-04-15T12:59:24.227Z,22.16
2023-04-15T13:01:53.658Z,22.14
2023-04-15T13:04:21.452Z,21.98
2023-04-15T13:06:48.522Z,21.81
2023-04-15T13:09:16.916Z,21.73
2023-04-15T13:11:44.266Z,21.51
2023-04-15T13:14:13.212Z,21.39
2023-04-15T13:16:40.954Z,21.46
2023-04-15T13:19:08.413Z,21.50
2023-04-15T13:21:36.437Z,21.62
2023-04-15T13:24:05.186Z,21.64
2023-04-15T13:26:32.966Z,21.44
2023-04-15T13:29:01.392Z,21.41
2023-04-15T13:31:28.463Z,21.46
2023-04-15T13:33:56.670Z,21.58
2023-04-15T13:36:23.700Z,21.73
2023-04-15T13:38:51.549Z,21.74
2023-04-15T13:41:20.207Z,21.74
2023-04-15T13:43:47.425Z,21.69
2023-04-15T13:46:14.839Z,21.57
2023-04-15T13:48:42.293Z,21.40
2023-04-15T13:51:09.430Z,21.35
2023-04-15T13:53:38.911Z,21.43
2023-04-15T13:56:08.519Z,21.35
2023-04-15T13:58:37.071Z,21.08
2023-04-15T14:01:05.969Z,21.52
2023-04-15T14:03:34.810Z,21.52
2023-04-15T14:06:02.030Z,21.57
2023-04-15T14:08:30.174Z,21.51
2023-04-15T14:10:57.867Z,21.18
2023-04-15T14:13:25.334Z,21.34
2023-04-15T14:15:52.459Z,21.12
2023-04-15T14:18:19.485Z,21.05
2023-04-15T14:20:46.681Z,20.77
2023-04-15T14:23:13.601Z,20.90
2023-04-15T14:25:40.692Z,20.71
2023-04-15T14:28:07.662Z,20.57
2023-04-15T14:30:34.839Z,20.65
2023-04-15T14:33:02.440Z,20.82
2023-04-15T14:35:29.660Z,20.92
2023-04-15T14:37:57.823Z,21.18
2023-04-15T14:40:24.748Z,21.23
2023-04-15T14:42:51.921Z,21.28
2023-04-15T14:45:19.149Z,21.22
2023-04-15T14:47:47.175Z,21.12
2023-04-15T14:50:14.205Z,21.01
2023-04-15T14:52:41.395Z,21.20
2023-04-15T14:55:11.157Z,21.38
2023-04-15T14:57:39.669Z,21.50
2023-04-15T15:00:08.020Z,21.48
2023-04-15T15:02:39.659Z,21.41
2023-04-15T15:05:09.949Z,21.27
2023-04-15T15:07:38.443Z,21.35
2023-04-15T15:10:06.238Z,21.39
2023-04-15T15:12:33.765Z,21.26
2023-04-15T15:15:02.908Z,21.51
2023-04-15T15:17:35.592Z,21.52
2023-04-15T15:20:03.652Z,21.68
2023-04-15T15:22:32.092Z,21.68
2023-04-15T15:24:59.860Z,21.88
2023-04-15T15:27:27.070Z,23.36
2023-04-15T15:29:54.201Z,26.05
2023-04-15T15:32:21.318Z,28.24
2023-04-15T15:34:48.334Z,28.97
2023-04-15T15:37:15.512Z,28.49
2023-04-15T15:39:42.519Z,29.19
2023-04-15T15:42:09.713Z,29.62
2023-04-15T15:44:38.592Z,29.45
2023-04-15T15:47:06.078Z,29.01
2023-04-15T15:49:33.428Z,28.95
2023-04-15T15:52:00.906Z,29.33
2023-04-15T15:54:29.192Z,29.77
2023-04-15T15:56:57.548Z,29.81
2023-04-15T15:59:25.823Z,29.62
2023-04-15T16:01:53.220Z,29.91
2023-04-15T16:04:20.461Z,29.80
2023-04-15T16:06:48.672Z,30.17
2023-04-15T16:09:16.160Z,30.01
2023-04-15T16:11:44.584Z,30.05
2023-04-15T16:14:12.100Z,29.72
2023-04-15T16:16:39.678Z,29.50
2023-04-15T16:19:07.089Z,29.43
2023-04-15T16:21:34.569Z,29.97
2023-04-15T16:24:02.254Z,30.00
2023-04-15T16:26:30.173Z,30.76
2023-04-15T16:28:57.263Z,31.10
2023-04-15T16:31:24.339Z,31.07
2023-04-15T16:33:51.376Z,29.90
2023-04-15T16:36:18.366Z,28.46
2023-04-15T16:38:48.436Z,27.15
2023-04-15T16:41:16.428Z,27.07
2023-04-15T16:43:43.528Z,26.12
2023-04-15T16:46:11.287Z,24.92
2023-04-15T16:48:38.642Z,23.99
2023-04-15T16:51:05.850Z,23.28
2023-04-15T16:53:33.028Z,22.70
2023-04-15T16:56:00.581Z,22.09
2023-04-15T16:58:28.950Z,21.43
2023-04-15T17:00:56.260Z,20.83
2023-04-15T17:03:23.497Z,20.46
2023-04-15T17:05:50.781Z,20.02
2023-04-15T17:08:18.053Z,19.60
2023-04-15T17:10:45.336Z,19.15
2023-04-15T17:13:12.737Z,18.77
2023-04-15T17:15:41.004Z,18.32
2023-04-15T17:18:25.857Z,18.23
2023-04-15T17:21:06.520Z,18.00
2023-04-15T17:23:37.818Z,17.76
2023-04-15T17:26:06.443Z,17.48
2023-04-15T17:28:35.104Z,17.30
2023-04-15T17:31:08.103Z,17.27
2023-04-15T17:34:06.687Z,17.07
2023-04-15T17:36:57.981Z,16.80
2023-04-15T17:39:46.168Z,16.53
2023-04-15T17:42:33.061Z,16.54
2023-04-15T17:45:20.183Z,16.40
2023-04-15T17:48:07.207Z,16.21
2023-04-15T17:50:54.267Z,15.79
2023-04-15T17:53:41.931Z,16.11
2023-04-15T17:56:29.544Z,15.98
2023-04-15T17:59:16.694Z,16.05
2023-04-15T18:02:03.752Z,15.96
2023-04-15T18:04:50.938Z,15.80
2023-04-15T18:07:38.011Z,15.75
2023-04-15T18:10:24.918Z,15.61
2023-04-15T18:13:11.744Z,15.65
2023-04-15T18:15:58.779Z,15.67
2023-04-15T18:18:45.925Z,15.41
2023-04-15T18:21:13.861Z,15.52
2023-04-15T18:23:41.097Z,15.38
2023-04-15T18:26:08.140Z,15.35
2023-04-15T18:28:37.807Z,15.12
2023-04-15T18:31:05.043Z,15.09
2023-04-15T18:33:32.031Z,15.04
2023-04-15T18:35:59.172Z,14.83
2023-04-15T18:38:26.373Z,14.73
2023-04-15T18:40:53.474Z,14.64
2023-04-15T18:43:20.868Z,14.42
2023-04-15T18:45:47.881Z,14.43
2023-04-15T18:48:16.082Z,14.47
2023-04-15T18:50:43.607Z,14.28
2023-04-15T18:53:10.727Z,14.22
2023-04-15T18:55:39.402Z,14.22
2023-04-15T18:58:08.830Z,14.10
2023-04-15T19:00:40.604Z,13.52
2023-04-15T19:03:08.128Z,13.76
2023-04-15T19:05:35.801Z,13.94
2023-04-15T19:08:02.793Z,14.03
2023-04-15T19:10:30.031Z,13.84
2023-04-15T19:12:57.005Z,13.85
2023-04-15T19:15:24.023Z,13.90
2023-04-15T19:17:51.168Z,13.83
2023-04-15T19:20:18.385Z,13.78
2023-04-15T19:22:46.297Z,13.95
2023-04-15T19:25:13.501Z,13.73
2023-04-15T19:27:40.423Z,13.71
2023-04-15T19:30:08.348Z,13.88
2023-04-15T19:32:36.499Z,13.92
2023-04-15T19:35:03.761Z,13.40
2023-04-15T19:37:31.400Z,13.76
2023-04-15T19:39:58.534Z,13.93
2023-04-15T19:42:25.635Z,13.72
2023-04-15T19:44:52.645Z,13.64
2023-04-15T19:47:19.845Z,13.53
2023-04-15T19:49:46.958Z,13.82
2023-04-15T19:52:14.112Z,13.83
2023-04-15T19:54:41.399Z,13.71
2023-04-15T19:57:08.484Z,13.78
2023-04-15T19:59:35.388Z,13.45
2023-04-15T20:02:02.591Z,13.69
2023-04-15T20:04:29.956Z,13.88
2023-04-15T20:06:57.128Z,13.60
2023-04-15T20:09:24.226Z,13.48
2023-04-15T20:12:46.227Z,13.58
2023-04-15T20:14:38.312Z,13.74
2023-04-15T20:17:05.463Z,13.58
2023-04-15T20:19:32.583Z,13.83
2023-04-15T20:21:59.677Z,13.84
2023-04-15T20:24:26.724Z,13.66
2023-04-15T20:26:53.936Z,13.66
2023-04-15T20:29:21.088Z,13.62
2023-04-15T20:31:48.345Z,13.75
2023-04-15T20:34:15.746Z,13.62
2023-04-15T20:36:43.171Z,13.42
2023-04-15T20:39:10.315Z,12.77
2023-04-15T20:41:37.472Z,13.54
2023-04-15T20:44:04.394Z,13.76
2023-04-15T20:46:31.586Z,13.62
2023-04-15T20:48:58.720Z,13.65
2023-04-15T20:51:27.416Z,13.55
2023-04-15T20:53:55.622Z,13.72
2023-04-15T20:56:25.339Z,13.53
2023-04-15T20:58:53.503Z,13.60
2023-04-15T21:01:20.892Z,13.76
2023-04-15T21:03:47.958Z,13.75
2023-04-15T21:06:15.080Z,13.60
2023-04-15T21:08:42.076Z,13.69
2023-04-15T21:11:09.255Z,13.67
2023-04-15T21:13:36.240Z,13.69
2023-04-15T21:16:03.497Z,13.70
2023-04-15T21:18:30.718Z,13.69
2023-04-15T21:21:01.669Z,13.72
2023-04-15T21:23:35.889Z,13.57
2023-04-15T21:26:03.179Z,13.74
2023-04-15T21:28:30.339Z,13.62
2023-04-15T21:30:57.913Z,13.74
2023-04-15T21:33:25.513Z,13.75
2023-04-15T21:35:54.869Z,13.51
2023-04-15T21:38:23.397Z,13.66
2023-04-15T21:40:51.070Z,13.66
2023-04-15T21:43:18.916Z,13.58
2023-04-15T21:45:51.291Z,13.68
2023-04-15T21:48:33.101Z,13.65
2023-04-15T21:51:01.687Z,13.63
2023-04-15T21:53:28.886Z,13.66
2023-04-15T21:55:56.285Z,13.53
2023-04-15T21:58:24.099Z,13.61
2023-04-15T22:00:52.559Z,13.63
2023-04-15T22:03:20.104Z,12.66
2023-04-15T22:05:47.190Z,12.24
2023-04-15T22:08:14.364Z,13.42
2023-04-15T22:10:41.389Z,13.41
2023-04-15T22:13:11.488Z,13.37
2023-04-15T22:15:39.207Z,13.32
2023-04-15T22:18:06.252Z,13.28
2023-04-15T22:20:33.334Z,13.20
2023-04-15T22:23:00.388Z,13.09
2023-04-15T22:25:27.410Z,13.21
2023-04-15T22:27:54.470Z,13.12
2023-04-15T22:30:21.575Z,13.10
2023-04-15T22:32:48.547Z,13.13
2023-04-15T22:35:15.805Z,13.00
2023-04-15T22:37:42.761Z,13.15
2023-04-15T22:40:28.983Z,13.12
2023-04-15T22:42:56.176Z,13.02
2023-04-15T22:45:23.635Z,12.93
2023-04-15T22:47:51.025Z,12.96
2023-04-15T22:50:18.326Z,12.53
2023-04-15T22:52:48.177Z,12.65
2023-04-15T22:55:15.563Z,12.73
2023-04-15T22:57:42.706Z,12.55
2023-04-15T23:00:11.483Z,12.60
2023-04-15T23:02:39.751Z,12.49
2023-04-15T23:05:12.617Z,12.31
2023-04-15T23:07:41.285Z,11.62
2023-04-15T23:10:08.995Z,11.02
2023-04-15T23:12:36.177Z,11.19
2023-04-15T23:15:03.742Z,12.20
2023-04-15T23:17:35.026Z,12.01
2023-04-15T23:20:02.798Z,12.16
2023-04-15T23:22:30.790Z,12.00
2023-04-15T23:24:58.052Z,11.90
2023-04-15T23:27:25.180Z,10.97
2023-04-15T23:29:52.441Z,12.07
2023-04-15T23:32:19.627Z,11.18
2023-04-15T23:34:47.039Z,11.95
2023-04-15T23:37:17.864Z,11.98
2023-04-15T23:39:45.579Z,11.55
2023-04-15T23:42:12.683Z,11.93
2023-04-15T23:44:39.685Z,11.78
2023-04-15T23:47:07.009Z,11.71
2023-04-15T23:49:34.472Z,11.75
2023-04-15T23:52:01.824Z,11.61
2023-04-15T23:54:29.011Z,11.78
2023-04-15T23:56:56.627Z,11.48
2023-04-15T23:59:23.693Z,10.55
